createdAt,value
2019-04-14T00:01:30.449Z,6.80
2019-04-14T00:04:40.037Z,5.03
2019-04-14T00:07:36.208Z,4.75
2019-04-14T00:10:40.620Z,6.37
2019-04-14T00:13:34.865Z,5.80
2019-04-14T00:22:55.529Z,9.13
2019-04-14T00:25:52.225Z,5.55
2019-04-14T00:28:44.726Z,8.98
2019-04-14T00:31:35.049Z,7.53
2019-04-14T00:34:39.894Z,8.85
2019-04-14T00:37:46.658Z,8.55
2019-04-14T00:40:56.188Z,7.40
2019-04-14T00:44:12.370Z,8.03
2019-04-14T00:47:18.027Z,4.53
2019-04-14T00:50:25.360Z,7.28
2019-04-14T00:53:18.523Z,7.12
2019-04-14T00:56:14.800Z,4.62
2019-04-14T00:59:09.249Z,5.62
2019-04-14T01:02:09.886Z,9.08
2019-04-14T01:08:11.990Z,4.85
2019-04-14T01:11:03.046Z,3.65
2019-04-14T01:13:57.161Z,3.98
2019-04-14T01:17:05.261Z,4.03
2019-04-14T01:19:56.959Z,3.95
2019-04-14T01:22:53.101Z,4.42
2019-04-14T01:28:56.803Z,6.45
2019-04-14T01:31:49.760Z,4.72
2019-04-14T01:34:43.390Z,5.00
2019-04-14T01:37:48.648Z,4.72
2019-04-14T01:40:44.553Z,5.03
2019-04-14T01:43:38.576Z,7.42
2019-04-14T01:46:34.278Z,5.65
2019-04-14T01:49:37.615Z,5.60
2019-04-14T01:52:56.812Z,5.90
2019-04-14T01:56:14.458Z,8.15
2019-04-14T01:59:08.908Z,5.30
2019-04-14T02:02:03.008Z,5.17
2019-04-14T02:04:52.896Z,5.25
2019-04-14T02:07:47.190Z,5.42
2019-04-14T02:10:41.172Z,5.25
2019-04-14T02:13:42.011Z,5.78
2019-04-14T02:16:52.189Z,7.22
2019-04-14T02:19:37.061Z,5.87
2019-04-14T02:22:31.275Z,5.47
2019-04-14T02:29:01.430Z,6.70
2019-04-14T02:32:32.561Z,6.30
2019-04-14T02:35:22.693Z,6.05
2019-04-14T02:38:23.568Z,6.65
2019-04-14T02:41:27.332Z,6.55
2019-04-14T02:46:59.554Z,7.45
2019-04-14T02:49:51.072Z,6.80
2019-04-14T02:53:01.780Z,7.47
2019-04-14T02:56:08.243Z,6.22
2019-04-14T02:58:55.179Z,9.85
2019-04-14T03:04:45.599Z,9.45
2019-04-14T03:07:46.795Z,5.50
2019-04-14T03:16:43.539Z,5.97
2019-04-14T03:19:41.544Z,5.12
2019-04-14T03:23:06.768Z,5.95
2019-04-14T03:25:41.464Z,5.10
2019-04-14T03:28:46.037Z,10.53
2019-04-14T03:31:59.679Z,10.80
2019-04-14T03:34:51.979Z,5.20
2019-04-14T03:43:31.702Z,5.53
2019-04-14T03:58:35.788Z,5.37
2019-04-14T04:01:32.336Z,5.87
2019-04-14T04:04:20.977Z,5.35
2019-04-14T04:07:17.095Z,6.47
2019-04-14T04:10:13.606Z,6.55
2019-04-14T04:13:08.854Z,6.35
2019-04-14T04:16:03.181Z,8.70
2019-04-14T04:19:04.089Z,5.72
2019-04-14T04:22:15.659Z,8.98
2019-04-14T04:25:39.964Z,5.35
2019-04-14T04:28:45.084Z,5.80
2019-04-14T04:31:50.442Z,9.67
2019-04-14T04:35:06.451Z,5.65
2019-04-14T04:38:27.182Z,6.28
2019-04-14T04:41:21.013Z,6.40
2019-04-14T04:44:13.819Z,12.37
2019-04-14T04:47:07.750Z,11.30
2019-04-14T04:50:00.426Z,8.18
2019-04-14T04:52:54.271Z,6.72
2019-04-14T04:55:59.341Z,11.53
2019-04-14T04:58:52.923Z,6.70
2019-04-14T05:01:47.341Z,7.65
2019-04-14T05:04:43.843Z,7.70
2019-04-14T05:10:59.436Z,7.45
2019-04-14T05:13:55.396Z,7.22
2019-04-14T05:16:49.133Z,6.45
2019-04-14T05:19:43.599Z,6.00
2019-04-14T05:22:37.579Z,6.03
2019-04-14T05:25:31.749Z,5.62
2019-04-14T05:28:24.685Z,8.78
2019-04-14T05:31:33.604Z,8.15
2019-04-14T05:34:28.282Z,6.42
2019-04-14T05:37:35.676Z,5.80
2019-04-14T05:40:30.008Z,6.42
2019-04-14T05:43:30.466Z,6.53
2019-04-14T05:46:16.348Z,6.55
2019-04-14T05:49:09.354Z,7.30
2019-04-14T05:51:59.170Z,7.53
2019-04-14T05:54:53.561Z,6.75
2019-04-14T05:57:48.025Z,6.80
2019-04-14T06:00:51.383Z,8.65
2019-04-14T06:04:00.373Z,8.63
2019-04-14T06:06:53.036Z,6.80
2019-04-14T06:09:47.441Z,7.70
2019-04-14T06:12:48.878Z,7.33
2019-04-14T06:15:41.937Z,7.03
2019-04-14T06:18:47.626Z,13.30
2019-04-14T06:21:53.771Z,12.63
2019-04-14T06:24:47.467Z,7.37
2019-04-14T06:27:38.737Z,10.28
2019-04-14T06:30:46.135Z,8.63
2019-04-14T06:33:50.717Z,7.90
2019-04-14T06:40:12.140Z,9.60
2019-04-14T06:43:18.480Z,7.92
2019-04-14T06:46:13.356Z,10.43
2019-04-14T06:49:07.569Z,8.13
2019-04-14T06:52:01.520Z,10.72
2019-04-14T06:54:56.640Z,8.35
2019-04-14T06:57:50.704Z,8.55
2019-04-14T07:01:10.141Z,12.98
2019-04-14T07:04:16.238Z,8.30
2019-04-14T07:07:11.901Z,8.15
2019-04-14T07:13:20.763Z,9.63
2019-04-14T07:16:15.341Z,12.75
2019-04-14T07:22:14.255Z,12.65
2019-04-14T07:25:08.080Z,10.75
2019-04-14T07:28:02.942Z,13.03
2019-04-14T07:37:54.303Z,11.08
2019-04-14T07:40:58.541Z,9.73
2019-04-14T07:44:14.841Z,11.68
2019-04-14T07:47:16.722Z,8.48
2019-04-14T07:50:30.260Z,9.70
2019-04-14T07:53:34.063Z,15.25
2019-04-14T07:59:57.038Z,12.18
2019-04-14T08:03:08.425Z,9.13
2019-04-14T08:09:05.644Z,8.40
2019-04-14T08:11:59.725Z,13.55
2019-04-14T08:15:06.862Z,12.35
2019-04-14T08:18:00.693Z,8.38
2019-04-14T08:20:50.027Z,12.82
2019-04-14T08:23:43.214Z,12.47
2019-04-14T08:26:36.780Z,9.53
2019-04-14T08:29:32.652Z,8.43
2019-04-14T08:32:26.733Z,14.60
2019-04-14T08:35:21.329Z,9.40
2019-04-14T08:38:10.865Z,11.85
2019-04-14T08:41:16.926Z,10.70
2019-04-14T08:51:24.148Z,8.73
2019-04-14T08:54:33.836Z,8.45
2019-04-14T08:57:57.357Z,7.95
2019-04-14T09:01:02.701Z,7.62
2019-04-14T09:04:18.159Z,10.15
2019-04-14T09:07:19.531Z,7.85
2019-04-14T09:10:27.033Z,7.60
2019-04-14T09:13:21.203Z,7.40
2019-04-14T09:16:08.941Z,8.10
2019-04-14T09:19:07.850Z,9.93
2019-04-14T09:22:07.607Z,7.12
2019-04-14T09:25:00.919Z,8.43
2019-04-14T09:27:53.724Z,7.62
2019-04-14T09:30:43.181Z,7.03
2019-04-14T09:33:37.777Z,7.00
2019-04-14T09:36:32.661Z,7.60
2019-04-14T09:42:45.116Z,7.42
2019-04-14T09:45:38.923Z,7.58
2019-04-14T09:48:45.551Z,9.78
2019-04-14T09:51:35.285Z,6.58
2019-04-14T10:01:09.017Z,7.62
2019-04-14T10:03:59.724Z,6.70
2019-04-14T10:06:53.055Z,7.75
2019-04-14T10:09:47.150Z,9.83
2019-04-14T10:12:41.202Z,6.33
2019-04-14T10:15:37.593Z,7.42
2019-04-14T10:18:26.995Z,7.33
2019-04-14T10:21:21.651Z,6.33
2019-04-14T10:24:21.713Z,6.42
2019-04-14T10:27:21.580Z,6.92
2019-04-14T10:30:15.001Z,6.65
2019-04-14T10:33:09.741Z,5.67
2019-04-14T10:36:03.824Z,6.15
2019-04-14T10:38:57.649Z,5.65
2019-04-14T10:41:51.225Z,6.45
2019-04-14T10:44:57.580Z,6.47
2019-04-14T10:47:51.158Z,4.87
2019-04-14T10:50:47.278Z,5.78
2019-04-14T10:53:41.612Z,5.97
2019-04-14T10:56:51.310Z,5.40
2019-04-14T10:59:45.149Z,4.75
2019-04-14T11:02:52.322Z,5.90
2019-04-14T11:05:55.569Z,6.30
2019-04-14T11:09:01.676Z,9.50
2019-04-14T11:11:55.260Z,7.78
2019-04-14T11:14:48.300Z,5.72
2019-04-14T11:17:42.381Z,7.95
2019-04-14T11:20:49.771Z,7.50
2019-04-14T11:23:43.853Z,7.42
2019-04-14T11:26:39.919Z,7.95
2019-04-14T11:29:57.612Z,5.65
2019-04-14T11:32:54.762Z,5.72
2019-04-14T11:35:59.088Z,6.10
2019-04-14T11:38:59.816Z,4.70
2019-04-14T11:45:04.371Z,6.90
2019-04-14T11:47:59.214Z,7.45
2019-04-14T11:50:52.800Z,7.33
2019-04-14T11:53:46.610Z,8.15
2019-04-14T11:56:41.195Z,6.80
2019-04-14T11:59:37.137Z,6.55
2019-04-14T12:06:17.057Z,5.47
2019-04-14T12:12:44.780Z,6.33
2019-04-14T12:15:39.116Z,6.95
2019-04-14T12:18:28.842Z,9.88
2019-04-14T12:21:23.436Z,9.08
2019-04-14T12:24:16.501Z,11.05
2019-04-14T12:27:12.877Z,6.65
2019-04-14T12:30:07.213Z,9.35
2019-04-14T12:33:02.211Z,7.75
2019-04-14T12:35:56.034Z,9.55
2019-04-14T12:38:56.636Z,11.50
2019-04-14T12:42:09.396Z,7.17
2019-04-14T12:45:26.263Z,11.55
2019-04-14T12:48:39.835Z,6.87
2019-04-14T12:51:47.973Z,12.13
2019-04-14T12:54:41.260Z,9.18
2019-04-14T12:57:40.716Z,9.43
2019-04-14T13:00:36.853Z,7.08
2019-04-14T13:03:32.723Z,9.73
2019-04-14T13:09:41.869Z,8.10
2019-04-14T13:12:35.704Z,10.32
2019-04-14T13:15:29.776Z,9.08
2019-04-14T13:18:23.614Z,8.63
2019-04-14T13:21:26.385Z,8.93
2019-04-14T13:24:32.255Z,10.88
2019-04-14T13:27:26.586Z,13.08
2019-04-14T13:30:20.141Z,7.25
2019-04-14T13:33:09.871Z,7.05
2019-04-14T13:36:03.692Z,8.55
2019-04-14T13:39:21.344Z,9.30
2019-04-14T13:42:15.662Z,7.70
2019-04-14T13:45:22.017Z,9.95
2019-04-14T13:48:22.257Z,7.87
2019-04-14T13:51:27.351Z,7.20
2019-04-14T13:54:15.371Z,8.33
2019-04-14T13:57:09.178Z,7.83
2019-04-14T14:00:03.121Z,9.25
2019-04-14T14:02:55.978Z,8.88
2019-04-14T14:09:21.516Z,11.75
2019-04-14T14:12:28.142Z,9.23
2019-04-14T14:18:40.112Z,7.67
2019-04-14T14:21:44.463Z,9.55
2019-04-14T14:24:43.587Z,8.93
2019-04-14T14:27:38.886Z,7.95
2019-04-14T14:30:34.347Z,8.03
2019-04-14T14:33:28.762Z,7.05
2019-04-14T14:36:22.840Z,8.40
2019-04-14T14:39:18.634Z,9.00
2019-04-14T14:45:37.276Z,7.60
2019-04-14T14:48:49.768Z,7.40
2019-04-14T14:52:09.710Z,9.93
2019-04-14T14:55:14.796Z,11.85
2019-04-14T14:58:08.875Z,7.12
2019-04-14T15:01:15.832Z,9.40
2019-04-14T15:04:09.835Z,8.40
2019-04-14T15:07:09.553Z,7.97
2019-04-14T15:10:14.381Z,10.30
2019-04-14T15:13:10.251Z,10.38
2019-04-14T15:16:16.632Z,8.90
2019-04-14T15:19:09.675Z,8.58
2019-04-14T15:22:16.558Z,11.22
2019-04-14T15:25:09.610Z,12.50
2019-04-14T15:31:13.904Z,9.08
2019-04-14T15:34:10.746Z,11.18
2019-04-14T15:37:04.628Z,8.10
2019-04-14T15:39:58.196Z,11.75
2019-04-14T15:42:51.511Z,9.30
2019-04-14T15:45:57.368Z,9.98
2019-04-14T15:48:53.853Z,8.93
2019-04-14T15:51:49.868Z,7.62
2019-04-14T15:54:45.238Z,11.75
2019-04-14T15:57:50.327Z,7.90
2019-04-14T16:01:01.037Z,8.18
2019-04-14T16:04:04.403Z,7.22
2019-04-14T16:10:39.261Z,7.97
2019-04-14T16:13:41.013Z,8.63
2019-04-14T16:16:55.451Z,8.83
2019-04-14T16:20:02.042Z,8.58
2019-04-14T16:23:01.490Z,11.28
2019-04-14T16:26:07.595Z,8.88
2019-04-14T16:29:08.074Z,9.28
2019-04-14T16:32:30.832Z,9.05
2019-04-14T16:35:36.737Z,8.85
2019-04-14T16:38:38.193Z,8.05
2019-04-14T16:41:34.081Z,8.98
2019-04-14T16:47:36.520Z,10.32
2019-04-14T16:50:29.650Z,9.13
2019-04-14T16:57:03.087Z,8.98
2019-04-14T16:59:57.513Z,9.38
2019-04-14T17:02:52.268Z,9.68
2019-04-14T17:05:59.409Z,10.85
2019-04-14T17:08:54.266Z,12.18
2019-04-14T17:11:46.606Z,11.20
2019-04-14T17:14:57.009Z,8.90
2019-04-14T17:18:18.230Z,10.50
2019-04-14T17:21:24.074Z,7.22
2019-04-14T17:24:29.963Z,8.00
2019-04-14T17:28:40.834Z,7.47
2019-04-14T17:35:19.669Z,10.32
2019-04-14T17:38:32.191Z,8.55
2019-04-14T17:41:53.660Z,9.10
2019-04-14T17:45:14.350Z,10.13
2019-04-14T17:48:25.338Z,7.70
2019-04-14T17:51:29.407Z,8.58
2019-04-14T17:54:36.530Z,10.55
2019-04-14T17:58:01.853Z,9.35
2019-04-14T18:04:25.071Z,7.65
2019-04-14T18:07:39.891Z,7.17
2019-04-14T18:10:51.114Z,9.55
2019-04-14T18:14:09.003Z,7.53
2019-04-14T18:17:34.060Z,5.97
2019-04-14T18:20:33.259Z,8.33
2019-04-14T18:23:38.040Z,9.95
2019-04-14T18:26:32.980Z,7.67
2019-04-14T18:33:13.972Z,7.12
2019-04-14T18:36:14.061Z,10.60
2019-04-14T18:39:31.439Z,10.40
2019-04-14T18:42:50.604Z,9.48
2019-04-14T18:45:55.182Z,8.55
2019-04-14T18:48:57.213Z,7.28
2019-04-14T18:52:17.414Z,7.92
2019-04-14T18:55:21.968Z,10.60
2019-04-14T18:58:28.096Z,5.85
2019-04-14T19:01:33.076Z,6.90
2019-04-14T19:07:38.290Z,6.97
2019-04-14T19:13:48.426Z,11.33
2019-04-14T19:16:40.431Z,6.05
2019-04-14T19:23:12.108Z,9.73
2019-04-14T19:26:05.696Z,5.80
2019-04-14T19:28:56.336Z,6.05
2019-04-14T19:31:58.723Z,11.05
2019-04-14T19:34:54.067Z,9.03
2019-04-14T19:38:01.710Z,12.07
2019-04-14T19:40:55.421Z,7.50
2019-04-14T19:43:50.638Z,11.60
2019-04-14T19:46:45.741Z,6.95
2019-04-14T19:49:57.502Z,7.75
2019-04-14T19:52:52.588Z,9.53
2019-04-14T19:55:46.215Z,6.35
2019-04-14T19:58:51.000Z,10.15
2019-04-14T20:01:51.983Z,11.10
2019-04-14T20:04:57.838Z,12.33
2019-04-14T20:07:51.981Z,12.50
2019-04-14T20:10:47.533Z,9.98
2019-04-14T20:13:57.546Z,12.23
2019-04-14T20:17:13.583Z,10.13
2019-04-14T20:20:23.534Z,12.47
2019-04-14T20:23:31.987Z,7.67
2019-04-14T20:33:02.085Z,11.08
2019-04-14T20:35:55.886Z,7.65
2019-04-14T20:38:51.501Z,13.03
2019-04-14T20:45:05.855Z,11.43
2019-04-14T20:48:04.517Z,12.95
2019-04-14T20:54:21.070Z,9.08
2019-04-14T20:57:25.870Z,10.93
2019-04-14T21:10:25.906Z,11.22
2019-04-14T21:13:36.387Z,13.85
2019-04-14T21:16:44.381Z,12.15
2019-04-14T21:23:14.417Z,13.78
2019-04-14T21:26:22.596Z,14.47
2019-04-14T21:33:09.361Z,14.47
2019-04-14T21:36:11.529Z,9.43
2019-04-14T21:39:17.232Z,13.13
2019-04-14T21:42:10.558Z,13.18
2019-04-14T21:45:03.877Z,13.90
2019-04-14T21:48:12.068Z,13.30
2019-04-14T21:51:15.590Z,11.38
2019-04-14T21:54:09.657Z,9.50
2019-04-14T22:03:52.064Z,14.83
2019-04-14T22:07:00.358Z,13.00
2019-04-14T22:10:19.800Z,14.38
2019-04-14T22:16:23.164Z,11.48
2019-04-14T22:19:17.230Z,7.10
2019-04-14T22:22:10.816Z,8.95
2019-04-14T22:25:09.228Z,9.13
2019-04-14T22:28:06.125Z,12.18
2019-04-14T22:34:30.643Z,12.00
2019-04-14T22:40:34.525Z,12.55
2019-04-14T22:43:30.036Z,12.78
2019-04-14T22:46:23.602Z,13.13
2019-04-14T22:49:28.969Z,12.95
2019-04-14T22:52:22.256Z,12.35
2019-04-14T22:55:17.870Z,13.15
2019-04-14T22:58:23.472Z,13.43
2019-04-14T23:01:33.678Z,12.50
2019-04-14T23:04:51.586Z,14.28
2019-04-14T23:08:17.669Z,12.93
2019-04-14T23:11:35.281Z,10.32
2019-04-14T23:14:48.563Z,12.73
2019-04-14T23:17:53.221Z,12.82
2019-04-14T23:21:15.514Z,14.33
2019-04-14T23:24:21.489Z,13.25
2019-04-14T23:27:28.644Z,13.53
2019-04-14T23:30:22.302Z,13.25
2019-04-14T23:33:17.303Z,12.80
2019-04-14T23:36:21.918Z,13.05
2019-04-14T23:39:25.165Z,12.33
2019-04-14T23:45:37.647Z,13.48
2019-04-14T23:48:39.827Z,12.90
2019-04-14T23:51:35.777Z,13.20
2019-04-14T23:54:29.416Z,13.90
2019-04-14T23:57:23.694Z,12.53
